Extreme weather reports worldwide

Atmospheric pressure

Low pressure

Station
 
Location
 
Name
 
Wind
Knots
Gust
Knots
Vis
SM
Temp/Dew
C
Baro
inHg
METAR
 
JAV BGJN Ilulissat, GL Ilulissat Airport 11 -8/-12 28.97 BGJN 280850Z AUTO 18011KT 9999NDV FEW025/// BKN170/// M08/M12 Q0981
ENUG 25 3/0 29.00 ENUG 280920Z AUTO 24025KT 9999NDV /// 03/00 Q0982 W06/S5
GOH BGGH Nuuk, GL Godthaab / Nuuk Airport 13 1.49 -6/-6 29.00 BGGH 280850Z 35013KT 2400 SN BKN006 OVC009 M06/M06 Q0982
NZCM 17 29 6.21 -3/-8 29.00 NZCM 280855Z AUTO 13017G29KT 9999 SCT065 BKN080 OVC090 M03/M08 A2900 RMK AO2 PK WND 14035/0826 SLP825 T10331083 55000
NZWD McMurdo Station, AQ Williams Field 20 5.59 -5/-7 29.01 NZWD 280855Z 17020KT 9000 BLSN OVC055 M05/M07 A2901 RMK PK WND GRID 34029/48 SLP825 GRID34020KT SDP/HDP

Station
 
Location
 
Name
 
Wind
Knots
Gust
Knots
Vis
SM
Temp/Dew
C
Baro
inHg
METAR
 
TNM SCRM Isla Rey Jorge, AQ Teniente Rodolfo Marsh Martin Base 12 5.59 1/0 29.03 SCRM 280900Z 32012KT 9000 SCT020 BKN040 01/00 Q0983 NOSIG
UAK BGBW Narsarsuaq, GL Narsarsuaq Airport 4 -1/-2 29.06 BGBW 280850Z AUTO 06004KT 9999NDV -SN SCT031/// OVC037/// M01/M02 Q0984
MEH ENMH Mehamn, NO Mehamn Airport 12 6.21 0/-2 29.08 ENMH 280920Z AUTO 19012KT 9999 NCD M00/M02 Q0985
HVG ENHV Honningsvåg, NO Valan Airport 13 6.21 3/-2 29.08 ENHV 280920Z AUTO 18013KT 150V210 9999 FEW100/// SCT130/// 03/M02 Q0985
HFT ENHF Hammerfest, NO Hammerfest Airport 21 38 6.21 0/-1 29.08 ENHF 280920Z AUTO 25021G38KT 9999 -SN FEW002/// SCT014/// BKN040/// 00/M01 Q0985 RMK WIND 1254FT 27035G50KT
SFJ BGSF Kangerlussuaq, GL Kangerlussuaq Airport 5 -17/-20 29.08 BGSF 280850Z AUTO 02005KT 9999NDV FEW080/// BKN100/// M17/M20 Q0985
LKL ENNA Lakselv, NO Banak Airport 10 6.21 2/-4 29.11 ENNA 280920Z 13010KT 100V160 CAVOK 02/M04 Q0986 RMK WIND 1800FT 25024KT
HAA ENHK Hasvik, NO Hasvik Airport 12 6.21 1/-1 29.11 ENHK 280920Z 25012KT 9999 FEW015 SCT035 01/M01 Q0986
BVG ENBV Berlevåg, NO Berlevåg Airport 14 6.21 1/-2 29.11 ENBV 280920Z AUTO 21014KT 9999 FEW157/// 01/M02 Q0986
BJF ENBS Båtsfjord, NO Båtsfjord Airport 14 6.21 -1/-3 29.11 ENBS 280920Z AUTO 21014KT 9999 BKN051/// M01/M03 Q0986
ALF ENAT Alta, NO Alta Airport 3 6.21 1/-5 29.11 ENAT 280920Z 19003KT 090V250 CAVOK 01/M05 Q0986 RMK WIND 700FT 19010KT
THU BGTL Thule, GL Thule Air Base 4 6.21 -24/-28 29.14 BGTL 280855Z AUTO 09004KT 9999 CLR M24/M28 A2914 RMK AO2 PRESFR SLP860 T12441282 57073 TSNO $
VDS ENVD Vadsø, NO Vadsø Airport 4 6.21 0/-2 29.14 ENVD 280920Z AUTO 01004KT 9999 SCT029/// M00/M02 Q0987
TOS ENTC Tromsø, NO Tromsø Airport 15 6.21 0/-1 29.14 ENTC 280920Z 18015KT 9999 -SHSN FEW009 BKN016 00/M01 Q0987 TEMPO 1000 SHSN BKN008 SCT020CB RMK WIND 2600FT 18027KT
SOJ ENSR Sørkjosen, NO Sørkjosen Airport 0 6.21 0/-1 29.14 ENSR 280920Z AUTO 00000KT 9999 FEW003/// SCT120/// M00/M01 Q0987 RMK WIND RWY32 VRB02KT WIND 1118FT 15009KT
KKN ENKR Kirkenes, NO Kirkenes Airport (Høybuktmoen) 8 6.21 -1/-1 29.14 ENKR 280920Z 18008KT 9999 FEW008 BKN010 M01/M01 Q0987 RMK WIND 731FT 23015KT
ANX ENAN Andenes, NO Andøya Airport 15 4.35 1/-2 29.14 ENAN 280920Z 22015KT 7000 -RA VV019 01/M02 Q0987
KUS BGKK Kulusuk, GL Kulusuk Airport 32 42 -5/-6 29.14 BGKK 280850Z AUTO 09032G42KT 0500NDV SN BKN011/// M05/M06 Q0987 RESN
BDU ENDU Målselv, NO Bardufoss Airport 4 6.21 1/-3 29.17 ENDU 280920Z 15004KT 9999 VCSH FEW025 SCT035 BKN050 01/M03 Q0988 NOSIG RMK WIND 1100FT 20010KT WIND 2200FT 22018KT
IVL EFIV Ivalo, FI Ivalo Airport 14 3.11 0/-1 29.17 EFIV 280920Z 21014KT 5000 -SN FEW007 M00/M01 Q0988
ENF EFET Enontekio, FI Enontekio Airport 8 6.21 -3/-4 29.17 EFET 280920Z AUTO 22008KT CAVOK M03/M04 Q0988
CWUW 9 -33/-36 29.19 CWUW 280933Z AUTO 25009KT ////SM SCT004 BKN017 OVC050 M33/M36 A2919
KRN ESNQ Kiruna, SE Kiruna Airport 10 6.21 -3/-7 29.20 ESNQ 280920Z AUTO 23010KT 9999 FEW130/// M03/M07 Q0989
SKN ENSK Hadsel, NO Stokmarknes Skagen Airport 7 6.21 1/-1 29.20 ENSK 280920Z 22007KT 180V250 9999 5000W VCSH FEW014 SCT022 BKN038 01/M01 Q0989
SVJ ENSH Svolvær, NO Svolvær Helle Airport 4 0.81 0/0 29.20 ENSH 280920Z AUTO 25004KT 210V290 1300 R01/P2000 -SN 00/M00 Q0989 RMK WIND 0150FT /////KT
LKN ENLK Leknes, NO Leknes Airport 8 6.21 0/0 29.20 ENLK 280920Z 22008KT 9999 4000W -SHSN SCT010 BKN025 00/M00 Q0989
EVE ENEV Evenes, NO Harstad/Narvik Airport, Evenes 11 4.97 2/0 29.20 ENEV 280920Z 22011KT 190V250 8000 -SNRA FEW003 BKN028 02/M00 Q0989 RMK WIND 1400FT 23025G35KT
MMK ULMM Murmansk, RU Murmansk Airport 6 6.21 0/0 29.23 ULMM 280930Z 18003MPS 150V230 9999 -SHSNRA BKN015CB 00/00 Q0990 R13/590244 NOSIG RMK QFE736
LYR ENSB Longyearbyen, NO Svalbard Airport, Longyear 19 6.21 -8/-15 29.23 ENSB 280920Z 11019KT 9999 FEW030 M08/M15 Q0990 RMK WIND 1400FT 10023KT
KTT EFKT Kittilä, FI Kittilä Airport 9 6.21 0/-1 29.23 EFKT 280920Z 23009KT 9999 BKN008 00/M01 Q0990
WPU SCGZ Puerto Williams, CL Guardiamarina Zañartu Airport 6 6.21 9/6 29.23 SCGZ 280900Z 25006KT 9999 FEW043 09/06 Q0990
USH SAWH Ushuahia, AR Malvinas Argentinas Airport 14 6.21 11/5 29.23 SAWH 280900Z 24014KT 9999 FEW040 11/05 Q0990 RMK PP000
PJA ESUP SE Pajala Airport 8 / 29.26 ESUP 280920Z AUTO 22008KT 190V250 //// OVC088/// ///// Q0991
GEV ESNG Gällivare, SE Gällivare Airport 12 6.21 / 29.26 ESNG 280920Z AUTO 25012KT 9999 NCD ///// Q0991
RET ENRS NO Røst Airport 29 6.21 2/-4 29.26 ENRS 280920Z 27029KT 9999 VCSH FEW020 SCT030 02/M04 Q0991
BOO ENBO Bodø, NO Bodø Airport 31 0.93 1/0 29.32 ENBO 280920Z 26031KT 1500 SHSN VV008 01/M00 Q0993 TEMPO 26025KT 0500 +SHSN BKN005 SCT014CB
RVN EFRO Rovaniemi, FI Rovaniemi Airport 14 6.21 -1/-1 29.32 EFRO 280920Z AUTO 22014KT 9999 -SHSN OVC003 M01/M01 Q0993
YVM CYVM Qikiqtarjuaq, CA Qikiqtarjuaq Airport 13 1.5 -23/-27 29.32 CYVM 280915Z AUTO 21013KT 1 1/2SM -SN OVC024 M23/M27 A2932 RMK SLP931
ENUN 48 1/-2 29.35 ENUN 280920Z AUTO 26048KT 9999NDV -SHRA BKN024/// 01/M02 Q0994 W07/S7
PUQ SCCI Punta Arenas, CL Pdte. Carlos Ibañez del Campo Airport 33 45 6.21 11/6 29.35 SCCI 280900Z 28033G45KT 9999 SCT040 11/06 Q0994 NOSIG
RGA SAWE Rio Grande, AR Hermes Quijada International Airport 16 6.21 9/6 29.35 SAWE 280900Z 30016KT CAVOK 09/06 Q0994 RMK PP000
WKJ RJCW Wakkanai, JP Wakkanai Airport 12 3.11 -7/-9 29.35 RJCW 280900Z 10012KT 5000 -SHSN FEW007 SCT010 BKN020 M07/M09 Q0994
YAH CYAH La Grande-4, CA La Grande-4 Airport 2 1.25 -16/-18 29.35 CYAH 280900Z AUTO VRB02KT 1 1/4SM -SN OVC018 M16/M18 A2935 RMK SLP976
YGL CYGL La Grande Rivière, CA La Grande Rivière Airport 6 8 -21/-23 29.37 CYGL 280900Z 02006KT 340V050 8SM -SN OVC038 M21/M23 A2937 RMK SC8 SLP973
SBT USDA Sabetta, RU Sabetta International Airport 14 6.21 -16/-18 29.38 USDA 280930Z 03007MPS 9999 -SN BKN016 M16/M18 Q0995 R04/420239 NOSIG RMK QFE745/0993

High pressure

Station
 
Location
 
Name
 
Wind
Knots
Gust
Knots
Vis
SM
Temp/Dew
C
Baro
inHg
METAR
 
YVQ CYVQ Norman Wells, CA Norman Wells Airport 6 10 -27/-30 31.05 CYVQ 280900Z 29006KT 10SM IC FEW100 SCT230 M27/M30 A3105 RMK AC1CI2 SLP529
YEV CYEV Inuvik, CA Inuvik Mike Zubko Airport 7 15 -28/-31 30.98 CYEV 280900Z 09007KT 15SM SKC M28/M31 A3098 RMK SLP507
CBAR -33/-37 30.96 CBAR 280900Z AUTO ///// ////SM NCD M33/M37 A3096
FYU PFYU Fort Yukon, US Fort Yukon Airport 0 4 -34/ 30.92 PFYU 280856Z AUTO 00000KT 4SM HZ CLR M34/ A3092 RMK AO2 SLP500 6//// T1344 412391361 58020 FZRANO
CYUA 19 26 -19/-22 30.87 CYUA 280900Z AUTO 17019G26KT ////SM NCD M19/M22 A3087

Station
 
Location
 
Name
 
Wind
Knots
Gust
Knots
Vis
SM
Temp/Dew
C
Baro
inHg
METAR
 
YCK CYVL Colville Lake, CA Tommy Kochon Airport 6 9 -31/-35 30.87 CYVL 280900Z AUTO 18006KT 9SM CLR M31/M35 A3087 RMK SLP508
EAA PAEG Eagle, US Eagle Airport 0 10 -30/-33 30.86 PAEG 280853Z AUTO 00000KT 10SM CLR M31/M34 A3086 RMK AO2 SLP484 T13061339 411441306 58012 TSNO
YFS CYFS Fort Simpson, CA Fort Simpson Airport 10 15 -20/-23 30.85 CYFS 280900Z 32010KT 15SM SKC M20/M23 A3085 RMK SLP473
CZCP 17 -29/-31 30.85 CZCP 280900Z AUTO 29017KT ////SM //// BKN002 M29/M31 A3085
YYE CYYE Fort Nelson, CA Fort Nelson Airport 4 15 -21/-23 30.84 CYYE 280900Z 29004KT 15SM SKC M21/M23 A3084 RMK SLP487
CWKM 6 -30/-32 30.79 CWKM 280900Z AUTO 26006KT ////SM OVC003 M30/M32 A3079
YMA CYMA Mayo, CA Mayo Airport 9 20 -17/-21 30.79 CYMA 280900Z 01009KT 20SM SKC M17/M21 A3079 RMK SLP485
BTI PABA Barter Island Lrrs, US Barter Island LRRS Airport 10 -28/-31 30.78 PABA 280852Z AUTO 10SM CLR M29/M32 A3078 RMK AO2 SLP432 6//// T12891317 412721328 56032 FZRANO PNO $
BTT PABT Bettles, US Bettles Airport 3 10 -17/-22 30.74 PABT 280853Z 28003KT 10SM OVC130 M17/M22 A3074 RMK AO2 SLP440 T11721222 411721361 56020
PAAD Deadhorse, US Point Thomson Airstrip 10 10 -29/-32 30.72 PAAD 280935Z AUTO 10010KT 10SM CLR M30/M32 A3072 RMK AO2 T12961325
SCC PASC Deadhorse, US Deadhorse Airport 16 8 -28/-32 30.71 PASC 280853Z 08016KT 8SM CLR M29/M32 A3071 RMK AO2 SLP402 IC T12891322 412671322 58026 $
ARC PARC Arctic Village, US Arctic Village Airport 4 10 -33/-36 30.71 PARC 280856Z AUTO 29004KT 10SM CLR M34/M37 A3071 RMK AO2 SLP518 T13391367 412171339 56014 FZRANO
NUI PAQT Nuiqsut, US Nuiqsut Airport 7 10 -30/-33 30.70 PAQT 280853Z AUTO 07007KT 10SM CLR M31/M34 A3070 RMK AO2 SLP398 T13061339 412671328 58026 TSNO PNO
MYU PAMY Mekoryuk, US Mekoryuk Airport 6 10 -2/-2 30.70 PAMY 280911Z AUTO 16006KT 10SM SCT008 M02/M02 A3070 RMK AO2 FZRANO
ORT PAOR Northway, US Northway Airport 0 10 -25/-27 30.69 PAOR 280853Z 00000KT 10SM CLR M25/M27 A3069 RMK AO2 SLP465 T12501272 411221250 58002
TAL PATA Tanana, US Ralph M Calhoun Memorial Airport 10 10 -16/-22 30.68 PATA 280852Z AUTO 08010KT 10SM OVC095 M17/M23 A3068 RMK AO2 SLP398 T11671228 411671278 56023 TSNO
SGY PAGY Skagway, US Skagway Airport 18 31 10 3/-6 30.68 PAGY 280853Z AUTO 02018G31KT 340V050 10SM CLR 03/M07 A3068 RMK AO2 PK WND 03031/0852 SLP390 I3000 T00331067 400391011 53026 TSNO
SXQ PASX Soldotna, US Soldotna Airport 0 10 -1/-3 30.68 PASX 280856Z AUTO 00000KT 10SM OVC037 M02/M03 A3068 RMK AO2 SLP397 T10171033 410061078 55002 FZRANO
YQH CYQH Watson Lake, CA Watson Lake Airport 0 15 -16/-17 30.68 CYQH 280900Z 00000KT 15SM SCT045 M16/M17 A3068 RMK SC4 SLP452
BRW PABR Utqiaġvik, US Wiley Post Will Rogers Memorial Airport 12 10 -26/-28 30.67 PABR 280853Z AUTO 09012KT 10SM CLR M26/M29 A3067 RMK AO2 SLP389 T12611289 412561317 57032 TSNO
ENA PAEN Kenai, US Kenai Municipal Airport 4 10 -2/-4 30.66 PAEN 280853Z AUTO 02004KT 10SM BKN034 OVC047 M02/M04 A3066 RMK AO2 SLP386 T10221044 410061044 56003 TSNO
HNS PAHN Haines, US Haines Airport 9 10 2/-3 30.66 PAHN 280854Z AUTO 30009KT 10SM CLR 02/M03 A3066 RMK AO2 SLP383 T00221033 400330000 51017 TSNO
PABV Birchwood, US Birchwood Airport 0 10 -2/-4 30.66 PABV 280856Z AUTO 00000KT 10SM OVC060 M03/M04 A3066 RMK AO2 SLP388 T10281044 410061028 56008 FZRANO
YHY CYHY Hay River, CA Hay River / Merlyn Carter Airport 15 21 15 -22/-26 30.66 CYHY 280900Z 29015G21KT 15SM DRSN FEW071 M22/M26 A3066 RMK AC2 SLP407
YOJ CYOJ High Level, CA High Level Airport 4 9 -22/-24 30.66 CYOJ 280900Z AUTO 28004KT 230V340 9SM OVC055 M22/M24 A3066 RMK SLP424
YXY CYXY Whitehorse, CA Whitehorse / Erik Nielsen International Airport 5 15 -9/-13 30.66 CYXY 280900Z 32005KT 15SM FEW040 M09/M13 A3066 RMK SC1 SLP441
MDO PAMD Middleton Island, US Middleton Island Airport 4 10 3/3 30.66 PAMD 280935Z AUTO 25004KT 10SM BKN009 OVC090 03/03 A3066 RMK AO2 CIG 007V013 PNO $
PALH Anchorage, US Lake Hood Airport 0 10 -2/-5 30.65 PALH 280853Z 00000KT 10SM SCT055 OVC070 M03/M05 A3065 RMK AO2 UPE0755 SLP381 P0000 60000 T10281050 410061033 56008
SWD PAWD Seward, US Seward Airport 3 10 0/-5 30.65 PAWD 280853Z AUTO 31003KT 10SM BKN042 OVC060 M01/M05 A3065 RMK AO2 SLP377 T10061050 400061028 55000 TSNO
YDQ CYDQ Dawson Creek, CA Dawson Creek Airport 9 15 9 -16/-20 30.65 CYDQ 280931Z AUTO 32009G15KT 9SM -SN BKN023 M16/M20 A3065 RMK SLP446
MRI PAMR Anchorage, US Merrill Field 3 10 -2/-5 30.65 PAMR 280939Z 36003KT 10SM FEW008 OVC055 M02/M05 A3065 RMK AO2 T10221050
CDV PACV Cordova, US Merle K (Mudhole) Smith Airport 0 10 -1/-2 30.64 PACV 280853Z 00000KT 10SM SCT095 M02/M03 A3064 RMK AO2 SLP376 I3000 T10171028 400221039 50005
ANC PANC Anchorage, US Ted Stevens Anchorage International Airport 3 10 -2/-5 30.64 PANC 280853Z 05003KT 10SM BKN047 OVC130 M03/M06 A3064 RMK AO2 SLP378 T10281056 410061033 56008
PATO 0 10 -1/-2 30.64 PATO 280853Z AUTO 00000KT 10SM BKN070 OVC085 M01/M02 A3064 RMK AO2 SLP376 T10111022 400001017 58007 TSNO
WWA PAWS Wasilla, US Wasilla Airport 0 10 -2/-4 30.64 PAWS 280856Z AUTO 00000KT 10SM OVC060 M03/M04 A3064 RMK AO2 SLP384 T10281044 410061044 56006 FZRANO
YXJ CYXJ Fort St.John, CA Fort St John Airport 7 15 -17/-21 30.64 CYXJ 280900Z 34007KT 15SM FEW025 BKN089 M17/M21 A3064 RMK SF2AC4 SLP443
GST PAGS Gustavus, US Gustavus Airport 0 0.5 -2/-2 30.64 PAGS 280931Z AUTO 00000KT 1/2SM FZFG OVC002 M02/M02 A3064 RMK AO2 FZRANO RVRNO
HOM PAHO Homer, US Homer Airport 4 10 0/-2 30.64 PAHO 280932Z AUTO 06004KT 10SM BKN030 OVC046 00/M02 A3064 RMK AO2 T00001022 TSNO
YAK PAYA Yakutat, US Yakutat Airport 0 1.25 -2/-2 30.64 PAYA 280933Z AUTO 00000KT 1 1/4SM BR BKN003 M02/M03 A3064 RMK AO2 I1000 T10221028 TSNO
PAQ PAAQ Palmer, US Warren "Bud" Woods Palmer Municipal Airport 0 10 -1/-3 30.63 PAAQ 280853Z AUTO 00000KT 10SM OVC065 M01/M03 A3063 RMK AO2 SLP377 T10111033 400061028 56004 TSNO
SOV PASO Seldovia, US Seldovia Airport 0 10 1/0 30.63 PASO 280853Z AUTO 00000KT 10SM OVC022 01/M01 A3063 RMK AO2 SLP372 T00111006 400171039 53002 TSNO
TKA PATK Talkeetna, US Talkeetna Airport 0 10 -5/-7 30.63 PATK 280853Z AUTO 00000KT 10SM OVC070 M05/M08 A3063 RMK AO2 SLP382 T10501078 410171100 58006 TSNO
EDF PAED Anchorage, US Elmendorf Air Force Base 0 10 -2/-4 30.62 PAED 280855Z 00000KT 10SM OVC050 M03/M05 A3062 RMK AO2A SLP368 T10271047 410091031 55008
FAI PAFA Fairbanks, US Fairbanks International Airport 5 10 -12/-18 30.62 PAFA 280855Z 36005KT 10SM SCT120 M13/M18 A3062 RMK AO2 T11281183 VISNO NE $
ATK PATQ Atqasuk, US Atqasuk Edward Burnell Sr Memorial Airport 14 10 -28/-31 30.62 PATQ 280856Z AUTO 09014KT 10SM CLR M29/M31 A3062 RMK AO2 SLP376 T12891311 412671311 58028 FZRANO TSNO